Time;durP1;ratioP1;P1;durP2;ratioP2;P2;SDS_P1;SDS_P2;PMS_P1;PMS_P2;Temp;Humidity;BMP_temperature;BMP_pressure;BME280_temperature;BME280_humidity;BME280_pressure;Samples;Min_cycle;Max_cycle;Signal;HPM_P1;HPM_P2
2022/08/07 00:01:06;;;;;;;10.40;6.20;;;;;;;10.61;50.50;102707.19;5010690;28;20425;-77
2022/08/07 00:03:32;;;;;;;9.98;6.03;;;;;;;10.56;50.06;102706.38;5015816;28;20731;-76
2022/08/07 00:05:57;;;;;;;11.95;6.10;;;;;;;10.56;50.13;102701.13;5012364;28;20400;-77
2022/08/07 00:08:23;;;;;;;8.65;4.90;;;;;;;10.55;49.96;102704.66;5012337;28;20049;-77
2022/08/07 00:10:49;;;;;;;10.48;5.55;;;;;;;10.49;50.14;102696.00;5010294;28;20022;-76
2022/08/07 00:13:18;;;;;;;11.20;5.57;;;;;;;10.47;50.40;102695.16;5007911;28;20122;-77
2022/08/07 00:15:44;;;;;;;9.07;5.65;;;;;;;10.46;50.68;102694.28;4996075;28;20092;-76
2022/08/07 00:18:10;;;;;;;10.20;6.03;;;;;;;10.56;50.16;102695.06;5011870;28;20799;-76
2022/08/07 00:20:37;;;;;;;9.32;5.25;;;;;;;10.46;50.09;102694.28;5017161;28;20084;-77
2022/08/07 00:23:06;;;;;;;7.65;5.60;;;;;;;10.40;50.61;102689.13;5025373;28;20041;-76
2022/08/07 00:25:32;;;;;;;9.30;5.65;;;;;;;10.43;50.57;102689.09;5003062;28;20041;-76
2022/08/07 00:27:58;;;;;;;11.45;5.65;;;;;;;10.46;50.74;102689.06;4999876;28;20037;-78
2022/08/07 00:30:24;;;;;;;10.57;6.18;;;;;;;10.32;50.24;102694.41;5010177;28;20026;-76
2022/08/07 00:32:50;;;;;;;13.70;6.10;;;;;;;10.20;50.58;102692.78;5023788;28;20099;-76
2022/08/07 00:35:20;;;;;;;11.55;5.72;;;;;;;10.04;51.09;102687.75;5013843;28;20030;-76
2022/08/07 00:37:46;;;;;;;10.25;5.20;;;;;;;9.95;51.37;102691.28;5025379;28;20357;-77
2022/08/07 00:40:13;;;;;;;10.13;6.15;;;;;;;9.89;51.38;102686.13;4999234;28;20033;-76
2022/08/07 00:42:40;;;;;;;8.52;4.72;;;;;;;9.84;51.32;102690.50;4992402;28;20440;-77
2022/08/07 00:45:07;;;;;;;9.88;5.85;;;;;;;9.82;51.55;102684.44;5011650;28;20075;-76
2022/08/07 00:47:33;;;;;;;11.95;5.97;;;;;;;9.80;51.82;102681.81;5008669;28;20703;-76
2022/08/07 00:49:58;;;;;;;6.75;5.07;;;;;;;9.82;51.71;102674.00;4995358;28;20114;-75
2022/08/07 00:52:24;;;;;;;8.93;5.47;;;;;;;9.95;51.50;102676.47;5010391;28;20132;-76
2022/08/07 00:54:51;;;;;;;10.05;5.80;;;;;;;10.02;51.36;102672.94;5012373;28;20091;-75
2022/08/07 00:57:17;;;;;;;8.80;5.30;;;;;;;10.07;51.25;102665.03;4993826;28;20045;-76
2022/08/07 00:59:43;;;;;;;10.02;5.72;;;;;;;10.07;51.47;102669.41;5009119;28;20125;-76
2022/08/07 01:02:10;;;;;;;8.95;5.03;;;;;;;10.12;50.96;102660.63;4999230;28;20520;-75
2022/08/07 01:04:36;;;;;;;13.30;6.55;;;;;;;10.11;51.12;102660.66;4999583;28;20270;-76
2022/08/07 01:07:03;;;;;;;11.32;6.20;;;;;;;10.14;51.32;102661.47;5009556;28;20041;-76
2022/08/07 01:09:29;;;;;;;10.88;7.03;;;;;;;10.21;50.82;102657.06;5011851;28;20041;-77
2022/08/07 01:11:55;;;;;;;9.48;5.63;;;;;;;10.17;51.30;102656.25;4993394;28;20042;-77
2022/08/07 01:14:22;;;;;;;9.55;5.65;;;;;;;10.20;51.23;102661.44;5012571;28;20525;-76
2022/08/07 01:16:49;;;;;;;8.48;5.97;;;;;;;10.15;51.09;102657.16;5008416;28;20053;-76
2022/08/07 01:19:19;;;;;;;12.75;6.30;;;;;;;10.08;50.88;102658.97;5000548;28;20100;-76
2022/08/07 01:21:50;;;;;;;9.43;6.07;;;;;;;10.02;51.30;102664.22;5010303;28;21653;-74
2022/08/07 01:24:18;;;;;;;17.40;6.95;;;;;;;10.04;51.22;102656.38;5023659;28;20037;-76
2022/08/07 01:26:44;;;;;;;10.65;6.20;;;;;;;9.94;51.61;102659.06;5008086;28;20034;-76
2022/08/07 01:29:10;;;;;;;10.65;6.20;;;;;;;10.02;51.68;102664.22;5012348;28;20037;-74
2022/08/07 01:31:37;;;;;;;8.32;5.38;;;;;;;10.06;51.45;102665.06;5001923;28;20042;-77
2022/08/07 01:34:04;;;;;;;9.00;5.82;;;;;;;9.91;51.24;102663.47;5027649;28;20040;-76
2022/08/07 01:36:34;;;;;;;10.93;5.80;;;;;;;9.74;51.67;102666.16;5011719;28;20833;-77
2022/08/07 01:39:04;;;;;;;12.40;5.95;;;;;;;9.65;51.83;102661.88;5006914;28;20045;-76
2022/08/07 01:41:30;;;;;;;9.48;6.10;;;;;;;9.76;52.00;102654.81;5018130;28;20041;-77
2022/08/07 01:43:59;;;;;;;11.15;5.78;;;;;;;9.72;51.81;102663.59;5009872;28;20487;-76
2022/08/07 01:46:26;;;;;;;11.18;6.50;;;;;;;9.66;52.26;102658.41;5015674;28;20439;-77
2022/08/07 01:48:51;;;;;;;10.65;5.88;;;;;;;9.57;52.42;102663.69;5009200;28;20559;-77
2022/08/07 01:51:23;;;;;;;8.27;6.10;;;;;;;9.67;52.40;102661.88;5013255;28;20499;-77
2022/08/07 01:53:52;;;;;;;12.60;5.68;;;;;;;9.79;52.27;102664.41;5025037;28;20049;-77
2022/08/07 01:56:32;;;;;;;11.40;6.40;;;;;;;9.97;51.50;102663.41;5001178;28;20041;-78
2022/08/07 01:59:14;;;;;;;10.02;5.95;;;;;;;9.80;51.82;102659.19;4998117;28;20534;-75
2022/08/07 02:01:45;;;;;;;11.50;6.38;;;;;;;9.73;51.85;102660.09;5011514;28;20029;-76
2022/08/07 02:04:14;;;;;;;10.45;5.63;;;;;;;9.64;51.94;102654.94;5022891;28;20029;-76
2022/08/07 02:06:45;;;;;;;9.88;6.03;;;;;;;9.59;51.78;102654.13;4993882;28;20406;-77
2022/08/07 02:09:14;;;;;;;11.10;5.22;;;;;;;9.45;52.16;102655.94;5012072;28;20025;-75
2022/08/07 02:11:44;;;;;;;7.45;5.00;;;;;;;9.44;52.38;102656.84;4999355;28;20034;-76
2022/08/07 02:14:12;;;;;;;9.45;6.07;;;;;;;9.50;51.97;102656.75;5008936;28;20033;-76
2022/08/07 02:16:39;;;;;;;9.13;5.75;;;;;;;9.48;51.80;102658.56;4990795;28;20025;-76
2022/08/07 02:19:12;;;;;;;11.18;5.72;;;;;;;9.43;52.01;102657.69;4998831;28;20057;-76
2022/08/07 02:21:39;;;;;;;12.00;5.78;;;;;;;9.49;51.96;102649.81;5009404;28;20116;-77
2022/08/07 02:24:06;;;;;;;11.98;6.47;;;;;;;9.48;51.89;102653.34;4990350;28;20561;-75
2022/08/07 02:26:34;;;;;;;10.07;5.60;;;;;;;9.49;51.62;102645.47;5021536;28;20037;-75
2022/08/07 02:29:06;;;;;;;9.73;5.40;;;;;;;9.33;51.81;102647.31;5009474;28;20034;-76
2022/08/07 02:31:32;;;;;;;10.73;5.70;;;;;;;9.45;51.67;102643.75;4998751;28;20041;-77
2022/08/07 02:34:00;;;;;;;10.43;5.88;;;;;;;9.45;51.51;102632.44;5002489;28;20491;-74
2022/08/07 02:36:28;;;;;;;7.72;4.75;;;;;;;9.49;51.57;102623.72;5028491;28;20982;-76
2022/08/07 02:39:00;;;;;;;9.10;5.93;;;;;;;9.49;51.83;102631.56;5001680;28;20111;-77
2022/08/07 02:41:28;;;;;;;11.57;6.38;;;;;;;9.59;51.22;102635.84;5029871;28;20121;-76
2022/08/07 02:43:57;;;;;;;9.98;5.97;;;;;;;9.62;51.29;102635.81;5011978;28;20100;-75
2022/08/07 02:46:24;;;;;;;10.52;6.30;;;;;;;9.66;51.59;102631.44;5019426;28;20037;-76
2022/08/07 02:48:50;;;;;;;10.90;6.30;;;;;;;9.54;51.58;102632.38;5009521;28;20042;-76
2022/08/07 02:51:19;;;;;;;9.18;5.63;;;;;;;9.62;51.72;102634.94;5019827;28;20437;-76
2022/08/07 02:53:53;;;;;;;12.35;6.22;;;;;;;9.62;51.48;102629.72;4997117;28;20499;-76
2022/08/07 02:56:21;;;;;;;8.80;5.45;;;;;;;9.63;51.40;102621.84;4997910;28;20033;-76
2022/08/07 02:58:50;;;;;;;12.23;7.20;;;;;;;9.64;51.31;102623.59;5011093;28;20432;-76
2022/08/07 03:01:18;;;;;;;10.25;6.38;;;;;;;9.61;51.47;102623.66;5019157;28;20037;-76
2022/08/07 03:03:46;;;;;;;11.10;6.38;;;;;;;9.64;51.51;102618.38;5018387;28;20539;-76
2022/08/07 03:06:14;;;;;;;11.18;6.45;;;;;;;9.59;51.55;102620.19;5000247;28;20080;-76
2022/08/07 03:08:40;;;;;;;14.98;7.10;;;;;;;9.55;51.84;102623.69;5018903;28;20060;-74
2022/08/07 03:11:07;;;;;;;14.15;7.95;;;;;;;9.55;51.69;102623.69;5019083;28;20343;-76
2022/08/07 03:13:37;;;;;;;13.30;6.73;;;;;;;9.50;51.67;102621.13;4999373;28;20171;-78
2022/08/07 03:16:03;;;;;;;13.05;7.03;;;;;;;9.50;51.94;102623.72;5018877;28;20530;-76
2022/08/07 03:18:31;;;;;;;11.82;7.15;;;;;;;9.47;51.86;102621.13;4997236;28;20093;-77
2022/08/07 03:20:56;;;;;;;14.90;6.63;;;;;;;9.45;51.79;102627.22;5009068;28;20381;-76
2022/08/07 03:23:25;;;;;;;12.05;6.88;;;;;;;9.25;51.99;102625.63;5018092;28;20086;-77
2022/08/07 03:25:52;;;;;;;11.85;6.57;;;;;;;9.12;52.09;102623.97;5011026;28;20041;-78
2022/08/07 03:28:19;;;;;;;11.95;6.55;;;;;;;9.01;52.41;102628.38;5002204;28;20030;-78
2022/08/07 03:30:45;;;;;;;11.40;6.80;;;;;;;8.93;52.69;102623.22;5018316;28;20120;-79
2022/08/07 03:33:13;;;;;;;12.90;7.20;;;;;;;8.87;53.07;102620.63;4993309;28;20041;-79
2022/08/07 03:35:41;;;;;;;15.75;6.88;;;;;;;8.84;53.16;102618.91;5015182;28;20037;-78
2022/08/07 03:38:08;;;;;;;14.55;6.55;;;;;;;8.73;53.50;102616.34;5018149;28;20300;-78
2022/08/07 03:40:35;;;;;;;12.40;7.22;;;;;;;8.73;53.65;102612.88;4995988;28;20788;-77
2022/08/07 03:43:02;;;;;;;12.18;6.82;;;;;;;8.83;53.23;102606.75;5013656;28;20045;-78
2022/08/07 03:45:31;;;;;;;15.00;7.80;;;;;;;8.91;53.12;102607.56;5013290;28;20030;-77
2022/08/07 03:48:05;;;;;;;12.52;7.50;;;;;;;8.98;53.06;102614.50;5024134;28;20479;-77
2022/08/07 03:50:33;;;;;;;13.32;8.10;;;;;;;9.01;53.42;102620.53;5019367;28;20030;-76
2022/08/07 03:53:00;;;;;;;13.07;6.97;;;;;;;9.08;53.26;102614.44;5012648;28;20639;-76
2022/08/07 03:55:28;;;;;;;11.30;6.07;;;;;;;9.17;52.98;102627.44;5000729;28;20585;-75
2022/08/07 03:57:54;;;;;;;14.48;7.60;;;;;;;9.19;53.21;102620.47;5011447;28;20529;-76
2022/08/07 04:00:20;;;;;;;13.00;7.70;;;;;;;9.30;52.95;102618.66;5027399;28;20038;-74
2022/08/07 04:02:49;;;;;;;13.48;7.75;;;;;;;9.23;52.60;102616.97;4997597;28;20046;-77
2022/08/07 04:05:25;;;;;;;13.90;7.85;;;;;;;9.12;52.83;102618.75;5003966;28;20400;-77
2022/08/07 04:07:52;;;;;;;15.75;7.93;;;;;;;9.17;52.98;102622.22;4999388;28;20037;-77
2022/08/07 04:10:22;;;;;;;11.57;7.20;;;;;;;9.22;52.67;102612.59;5000672;28;20480;-77
2022/08/07 04:12:49;;;;;;;11.15;6.82;;;;;;;9.08;52.72;102609.22;5016916;28;20041;-76
2022/08/07 04:15:15;;;;;;;16.85;8.35;;;;;;;8.96;52.92;102612.75;5013675;28;20036;-77
2022/08/07 04:17:43;;;;;;;15.63;8.70;;;;;;;8.89;53.67;102611.91;5009619;28;20049;-78
2022/08/07 04:20:11;;;;;;;15.20;7.55;;;;;;;8.90;53.79;102608.44;5015295;28;20044;-79
2022/08/07 04:22:39;;;;;;;14.95;8.10;;;;;;;9.07;53.36;102615.31;4998240;28;20429;-79
2022/08/07 04:25:05;;;;;;;13.55;7.97;;;;;;;9.28;53.20;102615.19;4997754;28;20553;-78
2022/08/07 04:27:33;;;;;;;9.85;6.80;;;;;;;9.39;53.00;102613.34;4998186;28;20052;-78
2022/08/07 04:29:59;;;;;;;12.15;6.70;;;;;;;9.51;53.03;102612.38;5000144;28;20028;-79
2022/08/07 04:32:30;;;;;;;12.48;7.45;;;;;;;9.61;52.82;102621.03;5018048;28;20045;-77
2022/08/07 04:34:56;;;;;;;12.60;6.75;;;;;;;9.69;52.71;102619.22;4998512;28;20320;-79
2022/08/07 04:37:21;;;;;;;16.00;7.75;;;;;;;9.69;52.46;102624.44;5003090;28;20046;-78
2022/08/07 04:39:50;;;;;;;12.27;6.60;;;;;;;9.68;52.48;102619.22;5004788;28;20412;-78
2022/08/07 04:42:17;;;;;;;9.00;5.93;;;;;;;9.78;52.66;102626.97;5000889;28;20124;-79
2022/08/07 04:44:43;;;;;;;9.98;6.43;;;;;;;9.86;52.37;102633.91;5018136;28;20033;-77
2022/08/07 04:47:18;;;;;;;12.75;7.35;;;;;;;9.92;52.19;102628.63;5021121;28;20057;-78
2022/08/07 04:49:58;;;;;;;13.10;8.40;;;;;;;9.77;52.28;102632.22;5021482;28;20283;-79
2022/08/07 04:52:37;;;;;;;11.52;7.72;;;;;;;9.78;52.27;102633.94;5013627;28;20043;-77
2022/08/07 04:55:09;;;;;;;14.15;7.50;;;;;;;9.89;52.26;102639.09;5014966;28;21021;-78
2022/08/07 04:57:56;;;;;;;11.55;6.18;;;;;;;10.05;52.30;102639.81;5014035;28;20052;-77
2022/08/07 05:00:42;;;;;;;13.73;6.65;;;;;;;10.27;51.59;102635.25;5016645;28;20033;-78
2022/08/07 05:03:23;;;;;;;11.65;7.20;;;;;;;10.07;51.44;102641.53;5004528;28;20405;-77
2022/08/07 05:06:08;;;;;;;10.18;6.78;;;;;;;10.18;51.88;102639.69;5004544;28;20033;-75
2022/08/07 05:08:36;;;;;;;11.90;6.93;;;;;;;10.30;51.97;102635.19;5005601;28;20067;-77
2022/08/07 05:11:12;;;;;;;11.05;7.15;;;;;;;10.41;51.91;102635.94;5019760;28;20038;-77
2022/08/07 05:13:50;;;;;;;12.82;7.20;;;;;;;10.94;50.91;102636.22;5001888;28;20663;-76
2022/08/07 05:16:19;;;;;;;14.68;6.95;;;;;;;10.51;50.75;102637.59;5001529;28;20701;-77
2022/08/07 05:18:54;;;;;;;14.93;7.40;;;;;;;10.70;51.18;102639.97;5003617;28;20253;-76
2022/08/07 05:21:25;;;;;;;16.08;7.75;;;;;;;10.72;50.88;102638.19;5020599;28;20025;-76
2022/08/07 05:23:57;;;;;;;13.88;8.30;;;;;;;10.82;50.83;102640.72;5001457;28;20038;-75
2022/08/07 05:26:27;;;;;;;15.27;7.68;;;;;;;10.97;50.06;102649.25;5025924;28;20128;-78
2022/08/07 05:29:00;;;;;;;15.02;7.60;;;;;;;10.99;50.20;102645.72;5028676;28;21741;-76
2022/08/07 05:31:32;;;;;;;11.98;7.32;;;;;;;11.16;50.87;102640.25;5003372;28;20037;-77
2022/08/07 05:34:04;;;;;;;14.30;6.75;;;;;;;13.17;48.46;102645.34;4998505;28;20029;-77
2022/08/07 05:36:32;;;;;;;10.82;5.90;;;;;;;13.67;45.67;102645.94;4998519;28;20067;-77
2022/08/07 05:38:59;;;;;;;10.90;6.55;;;;;;;14.85;43.82;102636.59;5015137;28;20124;-75
2022/08/07 05:41:26;;;;;;;13.07;5.82;;;;;;;17.27;38.70;102634.28;4998957;28;20169;-78
2022/08/07 05:43:54;;;;;;;10.75;6.65;;;;;;;19.30;35.02;102634.94;4995821;28;20475;-76
2022/08/07 05:46:20;;;;;;;9.10;5.97;;;;;;;20.67;31.70;102624.31;4996392;28;20128;-77
2022/08/07 05:48:48;;;;;;;9.95;5.30;;;;;;;21.50;29.29;102623.13;4997493;28;20499;-75
2022/08/07 05:51:14;;;;;;;9.05;5.10;;;;;;;21.79;29.33;102625.00;5000010;28;20033;-76
2022/08/07 05:53:39;;;;;;;8.77;5.28;;;;;;;22.44;27.31;102624.56;5005443;28;20041;-77
2022/08/07 05:56:08;;;;;;;7.50;4.63;;;;;;;21.69;30.54;102632.66;5027469;28;20038;-75
2022/08/07 05:58:40;;;;;;;7.53;4.43;;;;;;;23.60;27.09;102630.28;5016134;28;20108;-77
2022/08/07 06:01:12;;;;;;;9.63;5.50;;;;;;;23.89;25.28;102639.94;5005898;28;20040;-78
2022/08/07 06:03:53;;;;;;;6.93;4.78;;;;;;;24.10;25.64;102640.25;5020857;28;20069;-79
2022/08/07 06:06:22;;;;;;;8.80;5.63;;;;;;;24.13;26.09;102632.88;5008970;28;20284;-80
2022/08/07 06:08:53;;;;;;;10.02;5.38;;;;;;;24.42;25.27;102632.66;5025111;28;20056;-75
2022/08/07 06:11:19;;;;;;;5.78;3.90;;;;;;;25.54;24.26;102632.41;5019904;28;20033;-76
2022/08/07 06:13:45;;;;;;;5.55;4.63;;;;;;;25.73;24.66;102633.66;5016360;28;20577;-75
2022/08/07 06:16:14;;;;;;;6.72;4.25;;;;;;;26.33;23.49;102627.13;5022653;28;20030;-76
2022/08/07 06:18:43;;;;;;;9.13;4.75;;;;;;;26.71;22.03;102633.91;5005253;28;20030;-75
2022/08/07 06:21:11;;;;;;;5.90;4.30;;;;;;;26.27;22.81;102633.84;5007718;28;20831;-77
2022/08/07 06:23:38;;;;;;;8.38;5.47;;;;;;;26.72;22.70;102634.78;5003352;28;20046;-76
2022/08/07 06:26:06;;;;;;;7.35;4.55;;;;;;;27.05;22.00;102642.69;5009993;28;20097;-76
2022/08/07 06:28:31;;;;;;;6.65;4.13;;;;;;;27.97;21.67;102644.78;5008144;28;20232;-79
2022/08/07 06:30:57;;;;;;;5.88;4.70;;;;;;;27.81;21.54;102642.59;5009562;28;20403;-77
2022/08/07 06:33:25;;;;;;;6.00;3.75;;;;;;;28.26;21.12;102644.09;5008065;28;20107;-77
2022/08/07 06:35:50;;;;;;;4.47;4.07;;;;;;;28.23;20.94;102645.19;5028321;28;20083;-76
2022/08/07 06:38:16;;;;;;;4.93;3.65;;;;;;;29.30;19.76;102639.97;5014749;28;20121;-77
2022/08/07 06:40:48;;;;;;;6.07;4.75;;;;;;;28.97;19.55;102643.97;5038515;28;20040;-76
2022/08/07 06:43:18;;;;;;;6.65;4.13;;;;;;;29.01;19.46;102641.81;5011286;28;20037;-76
2022/08/07 06:45:53;;;;;;;6.05;3.30;;;;;;;28.70;20.21;102642.81;5025534;28;20029;-77
2022/08/07 06:48:20;;;;;;;3.60;2.45;;;;;;;27.01;22.28;102640.41;5037316;28;20042;-77
2022/08/07 06:50:49;;;;;;;4.25;3.25;;;;;;;25.76;24.86;102646.81;5030900;28;20052;-76
2022/08/07 06:53:20;;;;;;;5.00;2.47;;;;;;;27.66;21.17;102641.22;5013939;28;20843;-76
2022/08/07 06:55:46;;;;;;;3.28;2.83;;;;;;;27.44;21.35;102636.81;5020367;28;20087;-77
2022/08/07 06:58:14;;;;;;;4.93;3.17;;;;;;;27.78;20.36;102648.19;5009806;28;20568;-76
2022/08/07 07:00:49;;;;;;;2.90;2.60;;;;;;;28.49;19.91;102642.84;5030144;28;20036;-76
2022/08/07 07:03:15;;;;;;;7.30;2.58;;;;;;;29.51;19.66;102649.75;5021895;28;20148;-76
2022/08/07 07:05:42;;;;;;;1.92;1.75;;;;;;;29.76;19.30;102646.44;5012924;28;20033;-76
2022/08/07 07:08:09;;;;;;;4.13;1.73;;;;;;;30.35;17.93;102646.22;5026946;28;20041;-75
2022/08/07 07:10:34;;;;;;;5.38;2.58;;;;;;;27.77;20.95;102642.97;5018750;28;20033;-76
2022/08/07 07:13:11;;;;;;;3.08;1.73;;;;;;;29.11;19.47;102640.84;5023109;28;20820;-75
2022/08/07 07:15:43;;;;;;;4.45;2.50;;;;;;;30.26;18.69;102644.41;5013307;28;20121;-76
2022/08/07 07:18:21;;;;;;;2.60;2.17;;;;;;;29.58;19.00;102643.63;5017937;28;20116;-76
2022/08/07 07:20:49;;;;;;;2.40;1.65;;;;;;;30.39;18.11;102643.06;5035248;28;20047;-76
2022/08/07 07:23:15;;;;;;;2.45;1.45;;;;;;;29.26;19.73;102640.41;5033879;28;20059;-76
2022/08/07 07:25:43;;;;;;;2.97;1.48;;;;;;;29.88;18.25;102632.78;5037495;28;20026;-75
2022/08/07 07:28:13;;;;;;;3.72;2.00;;;;;;;28.89;19.42;102633.88;5007384;28;20559;-74
2022/08/07 07:30:50;;;;;;;5.00;1.83;;;;;;;28.92;19.61;102632.75;5024403;28;20033;-76
2022/08/07 07:33:18;;;;;;;2.72;1.83;;;;;;;28.04;20.00;102626.28;5016998;28;20038;-75
2022/08/07 07:35:47;;;;;;;2.20;1.60;;;;;;;29.95;18.74;102625.78;5018026;28;20041;-76
2022/08/07 07:38:18;;;;;;;2.63;1.73;;;;;;;28.05;20.60;102620.75;5020143;28;20120;-74
2022/08/07 07:40:45;;;;;;;1.65;0.88;;;;;;;29.67;19.65;102622.22;5002825;28;20538;-76
2022/08/07 07:43:13;;;;;;;2.00;1.27;;;;;;;31.10;17.52;102622.56;5034088;28;20138;-75
2022/08/07 07:45:39;;;;;;;3.67;1.70;;;;;;;27.53;20.47;102612.69;5018377;28;20037;-76
2022/08/07 07:48:09;;;;;;;1.73;1.20;;;;;;;28.48;19.64;102616.97;5020436;28;20069;-76
2022/08/07 07:50:35;;;;;;;2.58;1.00;;;;;;;29.67;18.00;102611.47;5018020;28;20546;-75
2022/08/07 07:53:01;;;;;;;2.42;1.00;;;;;;;29.13;18.23;102611.13;5014593;28;20057;-76
2022/08/07 07:55:29;;;;;;;2.22;1.35;;;;;;;29.11;18.19;102616.63;5015355;28;20064;-75
2022/08/07 07:57:57;;;;;;;1.75;1.00;;;;;;;30.61;17.52;102610.44;5030669;28;20781;-75
2022/08/07 08:00:26;;;;;;;1.40;0.60;;;;;;;30.61;16.86;102600.50;5022359;28;20788;-77
2022/08/07 08:02:59;;;;;;;5.32;1.00;;;;;;;30.80;17.11;102603.06;5014020;28;20366;-76
2022/08/07 08:05:25;;;;;;;1.88;1.15;;;;;;;31.38;16.91;102600.81;5013796;28;20083;-77
2022/08/07 08:07:51;;;;;;;1.80;1.15;;;;;;;30.70;16.96;102606.81;5016183;28;20862;-78
2022/08/07 08:10:18;;;;;;;2.05;0.93;;;;;;;30.58;17.21;102615.16;5017291;28;20041;-77
2022/08/07 08:12:45;;;;;;;2.03;0.90;;;;;;;29.55;18.01;102621.50;5013418;28;20248;-77
2022/08/07 08:15:11;;;;;;;1.85;0.90;;;;;;;30.63;17.20;102617.38;5011382;28;20026;-77
2022/08/07 08:17:38;;;;;;;3.92;1.38;;;;;;;29.20;19.05;102611.38;5018471;28;20107;-78
2022/08/07 08:20:07;;;;;;;2.50;1.50;;;;;;;29.27;18.47;102604.44;5002273;28;20046;-77
2022/08/07 08:28:20;;;;;;;2.25;0.95;;;;;;;30.12;17.39;102608.03;5014035;28;19917;-78
2022/08/07 08:30:52;;;;;;;3.17;1.13;;;;;;;29.61;17.50;102603.94;5012775;28;20033;-78
2022/08/07 08:33:21;;;;;;;4.93;1.00;;;;;;;29.54;18.28;102603.66;5014420;28;20053;-77
2022/08/07 08:35:50;;;;;;;4.38;1.80;;;;;;;30.49;17.35;102593.59;5003834;28;20065;-76
2022/08/07 08:38:20;;;;;;;4.60;1.42;;;;;;;28.92;18.86;102597.75;5000861;28;20042;-77
2022/08/07 08:40:55;;;;;;;2.63;1.08;;;;;;;29.11;18.33;102597.78;5016241;28;20041;-76
2022/08/07 08:43:30;;;;;;;2.78;1.50;;;;;;;29.58;17.71;102589.75;5029981;28;20042;-76
2022/08/07 08:46:08;;;;;;;5.75;1.42;;;;;;;31.55;16.34;102585.59;5014608;28;20029;-77
2022/08/07 08:49:17;;;;;;;3.90;0.95;;;;;;;32.41;16.01;102590.88;5017037;28;20041;-77
2022/08/07 08:52:13;;;;;;;2.03;1.38;;;;;;;31.23;16.45;102586.22;4987938;28;20083;-77
2022/08/07 08:55:01;;;;;;;2.78;1.52;;;;;;;29.74;18.08;102588.31;5017008;28;20071;-78
2022/08/07 08:57:47;;;;;;;4.03;1.17;;;;;;;29.84;17.21;102591.81;5009824;28;20416;-78
2022/08/07 09:00:14;;;;;;;1.83;1.20;;;;;;;27.49;19.58;102592.44;5000260;28;20041;-76
2022/08/07 09:02:50;;;;;;;2.95;1.33;;;;;;;26.55;22.34;102591.38;4994401;28;20681;-77
2022/08/07 09:05:30;;;;;;;2.97;1.88;;;;;;;27.25;21.38;102592.75;5012766;28;20036;-75
2022/08/07 09:08:18;;;;;;;3.40;1.65;;;;;;;27.51;20.32;102593.16;5013443;28;20048;-76
2022/08/07 09:10:44;;;;;;;3.35;1.55;;;;;;;28.32;19.28;102595.13;5030182;28;20025;-77
2022/08/07 09:13:36;;;;;;;2.92;1.30;;;;;;;29.13;19.21;102590.41;5000617;28;20041;-76
2022/08/07 09:16:14;;;;;;;2.53;1.42;;;;;;;25.73;21.01;102598.84;5027650;28;20036;-76
2022/08/07 09:19:08;;;;;;;3.63;1.63;;;;;;;24.06;24.67;102604.91;5009092;28;20049;-76
2022/08/07 09:21:44;;;;;;;2.60;1.55;;;;;;;25.23;22.72;102597.25;5012791;28;20037;-76
2022/08/07 09:24:25;;;;;;;2.00;1.38;;;;;;;26.46;22.18;102597.50;5014534;28;20033;-76
2022/08/07 09:26:59;;;;;;;2.85;1.13;;;;;;;25.22;22.08;102597.38;5017264;28;20722;-76
2022/08/07 09:29:37;;;;;;;2.97;1.35;;;;;;;23.17;24.00;102594.97;4997753;28;20042;-75
2022/08/07 09:32:20;;;;;;;5.43;1.58;;;;;;;22.27;25.64;102593.66;5026556;28;20049;-75
2022/08/07 09:35:00;;;;;;;2.78;1.27;;;;;;;22.24;27.66;102585.88;5011722;28;20613;-75
2022/08/07 09:37:37;;;;;;;2.95;1.65;;;;;;;23.38;26.03;102596.19;5011553;28;20041;-76
2022/08/07 09:40:20;;;;;;;2.50;1.92;;;;;;;24.65;23.89;102591.72;5013990;28;20048;-74
2022/08/07 09:42:52;;;;;;;3.17;2.17;;;;;;;24.67;22.89;102588.09;5011824;28;20701;-77
2022/08/07 09:45:38;;;;;;;6.03;2.15;;;;;;;23.88;23.59;102583.03;5012087;28;20034;-76
2022/08/07 09:48:16;;;;;;;3.70;1.70;;;;;;;23.69;23.47;102588.75;5008214;28;20077;-75
2022/08/07 09:51:09;;;;;;;1.77;0.98;;;;;;;23.42;22.42;102584.34;5026131;28;20208;-75
2022/08/07 09:53:39;;;;;;;3.65;1.35;;;;;;;23.54;23.83;102579.13;5008029;28;20042;-76
2022/08/07 09:56:07;;;;;;;2.00;1.23;;;;;;;24.71;23.35;102574.41;5026584;28;20033;-77
2022/08/07 09:58:47;;;;;;;3.25;2.53;;;;;;;25.74;21.10;102573.78;5000539;28;20042;-76
2022/08/07 10:01:37;;;;;;;3.70;1.33;;;;;;;26.38;21.55;102578.50;5012038;28;20255;-76
2022/08/07 10:04:35;;;;;;;2.08;1.48;;;;;;;25.88;21.08;102574.38;5009225;28;20048;-77
2022/08/07 10:07:33;;;;;;;1.63;1.10;;;;;;;25.44;21.94;102570.66;4984247;28;20945;-75
2022/08/07 10:10:21;;;;;;;4.40;1.20;;;;;;;25.62;21.87;102570.22;5009732;28;20094;-76
2022/08/07 10:12:53;;;;;;;6.43;1.20;;;;;;;25.11;21.98;102560.72;5008629;28;20139;-76
2022/08/07 10:15:25;;;;;;;3.42;1.52;;;;;;;23.12;23.94;102565.06;5009402;28;20033;-76
2022/08/07 10:18:19;;;;;;;1.15;0.75;;;;;;;22.27;24.30;102561.69;4995269;28;20045;-76
2022/08/07 10:21:14;;;;;;;4.22;1.00;;;;;;;22.94;23.63;102549.34;5009797;28;20885;-76
2022/08/07 10:24:17;;;;;;;2.80;1.15;;;;;;;23.13;22.44;102548.13;5010117;28;20042;-76
2022/08/07 10:26:58;;;;;;;1.85;1.08;;;;;;;22.76;23.93;102542.56;4992305;28;20559;-76
2022/08/07 10:29:48;;;;;;;2.20;0.73;;;;;;;23.00;23.63;102535.59;5010676;28;20486;-77
2022/08/07 10:32:40;;;;;;;2.58;0.80;;;;;;;23.50;23.79;102537.59;5012218;28;20049;-77
2022/08/07 10:35:12;;;;;;;;;;;;;;;23.19;21.77;102534.38;4993235;28;20045;-76
2022/08/07 10:38:09;;;;;;;2.38;0.47;;;;;;;23.69;20.89;102535.38;5009142;28;20079;-75
2022/08/07 10:40:44;;;;;;;1.30;0.50;;;;;;;22.67;21.42;102535.16;4992703;28;20125;-75
2022/08/07 10:44:03;;;;;;;4.70;1.02;;;;;;;23.91;20.78;102532.06;5006068;28;20426;-75
2022/08/07 10:46:40;;;;;;;1.42;0.60;;;;;;;24.97;19.01;102527.03;4942638;28;21806;-74
2022/08/07 10:49:25;;;;;;;2.85;0.95;;;;;;;24.55;20.71;102523.00;4988788;28;20524;-75
2022/08/07 10:51:56;;;;;;;1.58;0.65;;;;;;;25.04;21.10;102528.25;5005426;28;20053;-76
2022/08/07 10:54:40;;;;;;;2.15;0.60;;;;;;;24.49;20.09;102521.66;5009459;28;20034;-76
2022/08/07 10:57:30;;;;;;;2.25;0.80;;;;;;;25.07;19.98;102520.97;5004318;28;20073;-76
2022/08/07 11:00:06;;;;;;;2.38;0.70;;;;;;;25.22;19.28;102525.97;5013272;28;20037;-77
2022/08/07 11:02:54;;;;;;;2.15;1.65;;;;;;;25.56;18.60;102518.03;5013322;28;20444;-75
2022/08/07 11:06:05;;;;;;;2.40;0.60;;;;;;;25.03;20.39;102509.63;5012310;28;20375;-76
2022/08/07 11:08:51;;;;;;;4.22;0.70;;;;;;;25.51;21.78;102504.13;5005014;28;22616;-76
2022/08/07 11:11:24;;;;;;;1.23;0.47;;;;;;;25.90;19.87;102493.06;5012784;28;20044;-76
2022/08/07 11:14:14;;;;;;;2.05;0.40;;;;;;;25.55;19.49;102500.25;5001057;28;20046;-74
2022/08/07 11:17:08;;;;;;;1.13;0.50;;;;;;;25.80;19.01;102491.13;5001956;28;20901;-75
2022/08/07 11:19:51;;;;;;;1.73;0.68;;;;;;;23.95;20.11;102496.19;5016010;28;20045;-74
2022/08/07 11:22:26;;;;;;;1.80;0.60;;;;;;;23.19;20.91;102499.69;5015349;28;22422;-74
2022/08/07 11:25:18;;;;;;;1.67;0.70;;;;;;;24.38;21.46;102497.53;5012705;28;20137;-75
2022/08/07 11:28:19;;;;;;;4.30;0.80;;;;;;;24.83;20.15;102492.41;5003088;28;20107;-75
2022/08/07 11:31:11;;;;;;;1.63;0.68;;;;;;;24.10;22.01;102491.56;4988085;28;20052;-75
2022/08/07 11:33:46;;;;;;;1.30;0.80;;;;;;;23.73;21.25;102486.16;5026005;28;20116;-74
2022/08/07 11:36:30;;;;;;;2.25;0.60;;;;;;;23.31;21.59;102479.34;5007181;28;20040;-74
2022/08/07 11:39:08;;;;;;;1.90;0.60;;;;;;;22.59;22.33;102487.69;5013251;28;20049;-74
2022/08/07 11:41:43;;;;;;;3.15;1.58;;;;;;;22.90;22.98;102485.69;4995486;28;20104;-75
2022/08/07 11:45:06;;;;;;;3.75;1.25;;;;;;;23.51;21.71;102483.28;5027631;28;20132;-74
2022/08/07 11:47:54;;;;;;;1.75;0.80;;;;;;;23.99;21.96;102489.66;4952475;28;20334;-74
2022/08/07 11:50:35;;;;;;;2.80;0.98;;;;;;;24.17;21.26;102479.44;4955005;28;20041;-75
2022/08/07 11:53:18;;;;;;;4.50;0.70;;;;;;;24.88;20.85;102473.31;4971315;28;20052;-74
2022/08/07 11:55:57;;;;;;;2.20;0.60;;;;;;;25.57;20.38;102476.88;5027475;28;20041;-75